Time;durP1;ratioP1;P1;durP2;ratioP2;P2;SDS_P1;SDS_P2;PMS_P1;PMS_P2;Temp;Humidity;BMP_temperature;BMP_pressure;BME280_temperature;BME280_humidity;BME280_pressure;Samples;Min_cycle;Max_cycle;Signal;HPM_P1;HPM_P2
2022/11/08 00:01:57;;;;;;;10.07;3.67;;;13.10;99.90;;;;;;5061814;28;20041;-30
2022/11/08 00:04:23;;;;;;;11.40;3.55;;;13.10;99.90;;;;;;5069032;28;20068;-29
2022/11/08 00:15:04;;;;;;;10.07;4.97;;;13.10;99.90;;;;;;5073252;28;20037;-30
2022/11/08 00:17:31;;;;;;;8.18;3.58;;;13.10;99.90;;;;;;5074452;28;20044;-30
2022/11/08 00:19:57;;;;;;;10.70;3.30;;;13.10;99.90;;;;;;5071764;28;20048;-31
2022/11/08 00:22:23;;;;;;;11.77;3.50;;;13.10;99.90;;;;;;5071686;28;20036;-30
2022/11/08 00:24:50;;;;;;;9.50;3.35;;;13.00;99.90;;;;;;5071473;28;20043;-30
2022/11/08 00:27:21;;;;;;;7.53;3.08;;;13.00;99.90;;;;;;5071659;28;20417;-31
2022/11/08 00:29:47;;;;;;;9.02;3.45;;;13.00;99.90;;;;;;5054770;28;20106;-32
2022/11/08 00:32:15;;;;;;;9.43;3.25;;;12.90;99.90;;;;;;5071326;28;20076;-30
2022/11/08 00:34:41;;;;;;;10.05;3.42;;;12.80;99.90;;;;;;5071287;28;20068;-32
2022/11/08 00:37:07;;;;;;;9.80;3.90;;;12.80;99.90;;;;;;5071103;28;20075;-31
2022/11/08 00:39:33;;;;;;;9.95;3.38;;;12.80;99.90;;;;;;5070836;28;20036;-31
2022/11/08 00:41:58;;;;;;;12.30;3.28;;;12.70;99.90;;;;;;5070951;28;20044;-30
2022/11/08 00:44:24;;;;;;;8.77;3.65;;;12.70;99.90;;;;;;5069482;28;20094;-30
2022/11/08 00:46:50;;;;;;;8.55;3.08;;;12.60;99.90;;;;;;5069154;28;20478;-30
2022/11/08 00:49:16;;;;;;;10.50;3.30;;;12.60;99.90;;;;;;5069072;28;20048;-30
2022/11/08 00:51:42;;;;;;;10.55;3.88;;;12.60;99.90;;;;;;5069307;28;20090;-31
2022/11/08 00:54:11;;;;;;;9.55;3.65;;;12.50;99.90;;;;;;5069021;28;20063;-31
2022/11/08 00:56:37;;;;;;;8.50;3.53;;;12.50;99.90;;;;;;5069475;28;20036;-32
2022/11/08 00:59:02;;;;;;;10.25;3.80;;;12.50;99.90;;;;;;5069459;28;20086;-30
2022/11/08 01:01:28;;;;;;;12.73;4.25;;;12.50;99.90;;;;;;5070810;28;20048;-31
2022/11/08 01:03:54;;;;;;;8.45;3.53;;;12.50;99.90;;;;;;5071178;28;20090;-30
2022/11/08 01:06:22;;;;;;;5.57;3.15;;;12.40;99.90;;;;;;5071214;28;20558;-30
2022/11/08 01:08:48;;;;;;;9.50;4.00;;;12.40;99.90;;;;;;5071226;28;20052;-31
2022/11/08 01:11:17;;;;;;;8.50;4.00;;;12.30;99.90;;;;;;5069203;28;20071;-30
2022/11/08 01:13:43;;;;;;;11.00;3.67;;;12.30;99.90;;;;;;5051937;28;20132;-30
2022/11/08 01:16:21;;;;;;;9.13;3.40;;;12.20;99.90;;;;;;5068775;28;20055;-31
2022/11/08 01:18:48;;;;;;;10.70;4.00;;;12.10;99.90;;;;;;5068673;28;20049;-30
2022/11/08 01:21:15;;;;;;;9.68;4.13;;;12.10;99.90;;;;;;5068925;28;20436;-31
2022/11/08 01:23:42;;;;;;;9.30;4.15;;;12.00;99.90;;;;;;5068940;28;20116;-30
2022/11/08 01:26:21;;;;;;;10.10;3.40;;;12.00;99.90;;;;;;5070112;28;20047;-31
2022/11/08 01:28:47;;;;;;;11.27;3.50;;;11.90;99.90;;;;;;5070726;28;20440;-31
2022/11/08 01:31:21;;;;;;;9.32;3.70;;;11.90;99.90;;;;;;5070498;28;20037;-30
2022/11/08 01:33:48;;;;;;;11.20;3.53;;;11.90;99.90;;;;;;5070520;28;20092;-31
2022/11/08 01:36:16;;;;;;;10.15;3.95;;;11.90;99.90;;;;;;5070509;28;20032;-30
2022/11/08 01:38:43;;;;;;;7.18;3.60;;;11.90;99.90;;;;;;5053978;28;20049;-30
2022/11/08 01:41:12;;;;;;;6.32;3.00;;;11.80;99.90;;;;;;5070751;28;20131;-30
2022/11/08 01:43:41;;;;;;;13.05;4.45;;;11.80;99.90;;;;;;5070901;28;20048;-31
2022/11/08 01:46:18;;;;;;;7.88;3.22;;;11.80;99.90;;;;;;5070625;28;20048;-31
2022/11/08 01:49:07;;;;;;;17.42;4.13;;;11.80;99.90;;;;;;5053986;28;20040;-30
2022/11/08 01:52:05;;;;;;;7.63;3.28;;;11.80;99.90;;;;;;5045934;28;20143;-30
2022/11/08 01:54:49;;;;;;;9.95;3.80;;;11.90;99.90;;;;;;5052982;28;20048;-31
2022/11/08 01:57:21;;;;;;;8.30;3.35;;;11.90;99.90;;;;;;5074984;28;20044;-30
2022/11/08 01:59:51;;;;;;;9.82;3.53;;;12.00;99.90;;;;;;5074299;28;20033;-30
2022/11/08 02:02:18;;;;;;;10.77;3.83;;;12.00;99.90;;;;;;5074362;28;20036;-31
2022/11/08 02:04:44;;;;;;;9.50;3.85;;;12.00;99.90;;;;;;5074472;28;20040;-30
2022/11/08 02:07:14;;;;;;;8.85;3.20;;;12.00;99.90;;;;;;5074323;28;20443;-31
2022/11/08 02:09:43;;;;;;;10.93;4.07;;;12.00;99.90;;;;;;5074444;28;20047;-31
2022/11/08 02:12:11;;;;;;;11.88;3.78;;;11.90;99.90;;;;;;5074265;28;20416;-30
2022/11/08 02:14:37;;;;;;;11.82;3.67;;;11.90;99.90;;;;;;5074346;28;20036;-30
2022/11/08 02:17:03;;;;;;;10.38;3.70;;;11.90;99.90;;;;;;5073978;28;20040;-31
2022/11/08 02:19:34;;;;;;;9.82;3.78;;;11.90;99.90;;;;;;5074251;28;20045;-31
2022/11/08 02:22:05;;;;;;;6.88;3.60;;;11.80;99.90;;;;;;5057629;28;20507;-30
2022/11/08 02:24:31;;;;;;;9.05;3.50;;;11.80;99.90;;;;;;5074497;28;20039;-30
2022/11/08 02:26:58;;;;;;;9.25;3.70;;;11.80;99.90;;;;;;5074556;28;20041;-31
2022/11/08 02:29:28;;;;;;;9.20;3.53;;;11.70;99.90;;;;;;5074231;28;20048;-31
2022/11/08 02:31:55;;;;;;;9.82;3.55;;;11.80;99.90;;;;;;5057228;28;20379;-31
2022/11/08 02:34:26;;;;;;;9.80;3.88;;;11.70;99.90;;;;;;5074038;28;20037;-31
2022/11/08 02:36:53;;;;;;;9.55;3.95;;;11.70;99.90;;;;;;5074109;28;20382;-31
2022/11/08 02:39:18;;;;;;;10.02;4.10;;;11.70;99.90;;;;;;5073514;28;20047;-30
2022/11/08 02:41:44;;;;;;;11.13;4.00;;;11.60;99.90;;;;;;5073518;28;20036;-30
2022/11/08 02:44:10;;;;;;;10.98;4.00;;;11.60;99.90;;;;;;5073791;28;20087;-31
2022/11/08 02:46:36;;;;;;;9.38;3.80;;;11.50;99.90;;;;;;5073849;28;20493;-31
2022/11/08 02:49:01;;;;;;;8.00;3.53;;;11.50;99.90;;;;;;5073435;28;20040;-30
2022/11/08 02:51:27;;;;;;;8.57;3.83;;;11.50;99.90;;;;;;5073249;28;20084;-30
2022/11/08 02:53:53;;;;;;;7.50;4.10;;;11.50;99.90;;;;;;5073147;28;20036;-31
2022/11/08 02:56:18;;;;;;;9.20;3.85;;;11.40;99.90;;;;;;5073599;28;20029;-30
2022/11/08 02:58:44;;;;;;;16.60;4.80;;;11.40;99.90;;;;;;5073172;28;20039;-31
2022/11/08 03:01:10;;;;;;;8.00;3.47;;;11.40;99.90;;;;;;5056935;28;20083;-32
2022/11/08 03:03:35;;;;;;;9.25;3.80;;;11.40;99.90;;;;;;5072903;28;20041;-30
2022/11/08 03:06:01;;;;;;;11.27;4.00;;;11.40;99.90;;;;;;5073262;28;20163;-30
2022/11/08 03:08:27;;;;;;;7.15;3.67;;;11.40;99.90;;;;;;5073011;28;20082;-31
2022/11/08 03:10:52;;;;;;;9.20;4.25;;;11.30;99.90;;;;;;5056327;28;20120;-31
2022/11/08 03:13:18;;;;;;;11.77;3.83;;;11.30;99.90;;;;;;5073300;28;20094;-31
2022/11/08 03:15:44;;;;;;;9.00;3.88;;;11.30;99.90;;;;;;5073225;28;20044;-30
2022/11/08 03:18:10;;;;;;;8.85;4.10;;;11.30;99.90;;;;;;5073202;28;20036;-31
2022/11/08 03:20:41;;;;;;;9.77;3.60;;;11.30;99.90;;;;;;5073205;28;20035;-30
2022/11/08 03:23:07;;;;;;;8.65;4.20;;;11.20;99.90;;;;;;5072751;28;20047;-31
2022/11/08 03:25:34;;;;;;;10.30;3.80;;;11.20;99.90;;;;;;5072931;28;20040;-30
2022/11/08 03:28:07;;;;;;;8.88;4.28;;;11.30;99.90;;;;;;5073069;28;20148;-31
2022/11/08 03:30:34;;;;;;;10.88;3.45;;;11.20;99.90;;;;;;5072838;28;20375;-30
2022/11/08 03:33:00;;;;;;;10.27;3.55;;;11.20;99.90;;;;;;5072985;28;20494;-31
2022/11/08 03:35:25;;;;;;;8.98;3.50;;;11.20;99.90;;;;;;5072825;28;20048;-31
2022/11/08 03:37:56;;;;;;;6.43;3.95;;;11.10;99.90;;;;;;5074007;28;20519;-31
2022/11/08 03:40:23;;;;;;;8.82;3.70;;;11.10;99.90;;;;;;5072854;28;20502;-30
2022/11/08 03:42:48;;;;;;;7.13;3.45;;;11.20;99.90;;;;;;5072815;28;20517;-30
2022/11/08 03:45:15;;;;;;;7.18;3.17;;;11.20;99.90;;;;;;5072482;28;20041;-30
2022/11/08 03:47:46;;;;;;;9.82;3.70;;;11.10;99.90;;;;;;5072384;28;20044;-31
2022/11/08 03:50:13;;;;;;;9.27;4.13;;;11.10;99.90;;;;;;5072890;28;20496;-31
2022/11/08 03:52:48;;;;;;;8.02;3.60;;;11.10;99.90;;;;;;5072309;28;20041;-31
2022/11/08 03:55:14;;;;;;;5.88;3.67;;;11.10;99.90;;;;;;5072890;28;20043;-30
2022/11/08 03:57:40;;;;;;;6.78;3.50;;;11.20;99.90;;;;;;5072477;28;20379;-30
2022/11/08 04:00:10;;;;;;;8.25;3.17;;;11.20;99.90;;;;;;5055431;28;20039;-30
2022/11/08 04:02:36;;;;;;;12.27;3.92;;;11.20;99.90;;;;;;5072089;28;20036;-31
2022/11/08 04:05:01;;;;;;;7.90;3.60;;;11.20;99.90;;;;;;5072345;28;20051;-30
2022/11/08 04:07:27;;;;;;;6.40;3.22;;;11.20;99.90;;;;;;5072155;28;20397;-30
2022/11/08 04:09:56;;;;;;;7.78;3.70;;;11.20;99.90;;;;;;5072187;28;20040;-30
2022/11/08 04:15:13;;;;;;;12.25;3.38;;;11.20;99.90;;;;;;5072332;28;20573;-30
2022/11/08 04:23:08;;;;;;;7.13;3.13;;;11.20;99.90;;;;;;5073201;28;20580;-31
2022/11/08 04:25:34;;;;;;;8.75;3.72;;;11.30;99.90;;;;;;5071722;28;20045;-31
2022/11/08 04:28:00;;;;;;;7.70;3.30;;;11.30;99.90;;;;;;5071459;28;20402;-30
2022/11/08 04:30:26;;;;;;;9.85;3.55;;;11.20;99.90;;;;;;5071453;28;20076;-31
2022/11/08 04:32:51;;;;;;;7.30;4.00;;;11.20;99.90;;;;;;5071652;28;20037;-30
2022/11/08 04:35:17;;;;;;;7.75;3.05;;;11.20;99.90;;;;;;5071151;28;20539;-30
2022/11/08 04:37:43;;;;;;;7.68;3.08;;;11.20;99.90;;;;;;5071568;28;20087;-29
2022/11/08 04:40:09;;;;;;;9.02;3.20;;;11.20;99.90;;;;;;5071477;28;20481;-30
2022/11/08 04:42:35;;;;;;;5.45;2.60;;;11.10;99.90;;;;;;5071340;28;20048;-31
2022/11/08 04:45:00;;;;;;;9.13;3.50;;;11.20;99.90;;;;;;5055001;28;20046;-30
2022/11/08 04:47:27;;;;;;;6.20;3.40;;;11.20;99.90;;;;;;5071648;28;20070;-31
2022/11/08 04:49:53;;;;;;;7.03;3.50;;;11.20;99.90;;;;;;5071497;28;20047;-30
2022/11/08 04:52:19;;;;;;;7.47;2.97;;;11.10;99.90;;;;;;5071256;28;20044;-30
2022/11/08 04:54:46;;;;;;;6.07;3.10;;;11.10;99.90;;;;;;5070787;28;20115;-31
2022/11/08 04:57:12;;;;;;;5.57;3.05;;;11.10;99.90;;;;;;5072456;28;20036;-30
2022/11/08 04:59:38;;;;;;;9.77;3.10;;;11.10;99.90;;;;;;5071328;28;20116;-30
2022/11/08 05:02:04;;;;;;;7.70;3.40;;;11.10;99.90;;;;;;5054476;28;20409;-29
2022/11/08 05:04:30;;;;;;;10.73;3.83;;;11.10;99.90;;;;;;5071092;28;20124;-30
2022/11/08 05:06:56;;;;;;;7.40;3.17;;;11.10;99.90;;;;;;5054069;28;20080;-30
2022/11/08 05:09:22;;;;;;;8.80;3.97;;;11.10;99.90;;;;;;5070810;28;20068;-31
2022/11/08 05:11:47;;;;;;;8.90;3.53;;;11.00;99.90;;;;;;5071006;28;20047;-30
2022/11/08 05:14:13;;;;;;;5.65;2.90;;;11.00;99.90;;;;;;5070608;28;20475;-30
2022/11/08 05:16:39;;;;;;;4.43;2.65;;;11.00;99.90;;;;;;5070668;28;20037;-30
2022/11/08 05:19:04;;;;;;;6.85;3.20;;;11.00;99.90;;;;;;5070630;28;20040;-30
2022/11/08 05:24:16;;;;;;;5.50;2.90;;;10.90;99.90;;;;;;5072154;28;20452;-29
2022/11/08 05:26:44;;;;;;;5.85;3.00;;;10.90;99.90;;;;;;5070615;28;20071;-30
2022/11/08 05:29:11;;;;;;;4.93;2.60;;;10.90;99.90;;;;;;5070946;28;20068;-29
2022/11/08 05:31:37;;;;;;;6.05;3.08;;;10.90;99.90;;;;;;5070785;28;20048;-29
2022/11/08 05:34:03;;;;;;;5.70;2.97;;;10.90;99.90;;;;;;5070748;28;20040;-30
2022/11/08 05:36:29;;;;;;;10.60;3.20;;;10.90;99.90;;;;;;5070466;28;20127;-30
2022/11/08 05:38:55;;;;;;;7.20;3.33;;;10.90;99.90;;;;;;5070261;28;20086;-31
2022/11/08 05:41:22;;;;;;;4.00;2.60;;;10.90;99.90;;;;;;5070702;28;20091;-30
2022/11/08 05:43:51;;;;;;;9.10;2.90;;;10.90;99.90;;;;;;5070793;28;20044;-30
2022/11/08 05:46:18;;;;;;;7.47;3.03;;;10.80;99.90;;;;;;5070674;28;20056;-30
2022/11/08 05:48:48;;;;;;;7.22;2.95;;;10.90;99.90;;;;;;5070155;28;20040;-29
2022/11/08 05:51:15;;;;;;;6.55;2.83;;;10.90;99.90;;;;;;5070105;28;20041;-30
2022/11/08 05:53:41;;;;;;;8.90;3.10;;;10.90;99.90;;;;;;5070367;28;20498;-30
2022/11/08 05:56:08;;;;;;;6.32;3.17;;;10.90;99.90;;;;;;5053426;28;20042;-30
2022/11/08 05:58:34;;;;;;;6.85;3.28;;;10.90;99.90;;;;;;5070568;28;20047;-30
2022/11/08 06:01:01;;;;;;;4.35;2.80;;;10.90;99.90;;;;;;5071682;28;20033;-29
2022/11/08 06:03:27;;;;;;;8.35;3.60;;;10.90;99.90;;;;;;5053490;28;20045;-29
2022/11/08 06:05:53;;;;;;;6.85;2.97;;;10.90;99.90;;;;;;5070304;28;20090;-30
2022/11/08 06:08:19;;;;;;;7.60;3.22;;;10.90;99.90;;;;;;5070470;28;20433;-30
2022/11/08 06:10:45;;;;;;;8.70;3.20;;;10.90;99.90;;;;;;5070133;28;20036;-29
2022/11/08 06:13:10;;;;;;;7.97;3.20;;;10.90;99.90;;;;;;5069691;28;20048;-30
2022/11/08 06:15:36;;;;;;;6.57;3.05;;;10.90;99.90;;;;;;5070437;28;20478;-30
2022/11/08 06:18:05;;;;;;;7.28;3.28;;;10.90;99.90;;;;;;5070235;28;20072;-30
2022/11/08 06:20:31;;;;;;;9.40;3.63;;;10.90;99.90;;;;;;5070474;28;20040;-30
2022/11/08 06:22:56;;;;;;;8.50;2.97;;;10.90;99.90;;;;;;5053219;28;20120;-29
2022/11/08 06:25:22;;;;;;;10.35;2.83;;;10.90;99.90;;;;;;5069401;28;20051;-29
2022/11/08 06:27:48;;;;;;;5.53;2.95;;;10.90;99.90;;;;;;5070294;28;20044;-30
2022/11/08 06:30:14;;;;;;;8.00;3.28;;;10.90;99.90;;;;;;5070369;28;20043;-30
2022/11/08 06:32:40;;;;;;;5.07;2.63;;;10.90;99.90;;;;;;5070371;28;20036;-30
2022/11/08 06:35:06;;;;;;;6.40;2.70;;;11.00;99.90;;;;;;5071217;28;20219;-31
2022/11/08 06:37:32;;;;;;;7.47;3.15;;;11.00;99.90;;;;;;5072498;28;20059;-30
2022/11/08 06:39:58;;;;;;;7.55;2.58;;;11.00;99.90;;;;;;5073966;28;20477;-31
2022/11/08 06:42:25;;;;;;;7.32;2.90;;;11.10;99.90;;;;;;5073935;28;20044;-30
2022/11/08 06:44:50;;;;;;;4.45;2.72;;;11.10;99.90;;;;;;5073752;28;20056;-29
2022/11/08 06:47:16;;;;;;;5.55;2.70;;;11.10;99.90;;;;;;5073833;28;20044;-30
2022/11/08 06:49:42;;;;;;;6.57;3.10;;;11.10;99.90;;;;;;5073385;28;20037;-29
2022/11/08 06:52:07;;;;;;;7.07;2.92;;;11.20;99.90;;;;;;5072837;28;20041;-30
2022/11/08 06:54:33;;;;;;;5.53;3.08;;;11.10;99.90;;;;;;5072055;28;20501;-29
2022/11/08 06:57:00;;;;;;;8.13;2.97;;;11.10;99.90;;;;;;5073403;28;20032;-30
2022/11/08 06:59:27;;;;;;;6.22;2.67;;;11.00;99.90;;;;;;5073588;28;20420;-33
2022/11/08 07:01:53;;;;;;;6.07;3.38;;;11.10;99.90;;;;;;5073597;28;20051;-29
2022/11/08 07:04:19;;;;;;;7.13;2.97;;;11.10;99.90;;;;;;5073825;28;20547;-30
2022/11/08 07:06:45;;;;;;;7.78;3.17;;;11.10;99.90;;;;;;5073416;28;20041;-30
2022/11/08 07:09:11;;;;;;;5.03;2.88;;;11.10;99.90;;;;;;5073514;28;20051;-29
2022/11/08 07:11:36;;;;;;;5.50;2.60;;;11.10;99.90;;;;;;5073389;28;20040;-30
2022/11/08 07:14:02;;;;;;;5.97;3.10;;;11.10;99.90;;;;;;5073161;28;20106;-30
2022/11/08 07:16:28;;;;;;;4.72;2.70;;;11.20;99.90;;;;;;5073089;28;20133;-30
2022/11/08 07:18:54;;;;;;;9.27;3.63;;;11.20;99.90;;;;;;5073243;28;20036;-30
2022/11/08 07:21:21;;;;;;;5.85;2.65;;;11.20;99.90;;;;;;5073260;28;20102;-30
2022/11/08 07:23:47;;;;;;;5.95;2.88;;;11.30;99.90;;;;;;5072745;28;20070;-30
2022/11/08 07:26:13;;;;;;;8.73;2.63;;;11.30;99.90;;;;;;5073101;28;20074;-29
2022/11/08 07:28:39;;;;;;;5.45;2.53;;;11.30;99.90;;;;;;5056232;28;20106;-30
2022/11/08 07:31:06;;;;;;;4.75;2.65;;;11.30;99.90;;;;;;5072272;28;20070;-29
2022/11/08 07:33:32;;;;;;;5.82;2.85;;;11.30;99.90;;;;;;5072468;28;20040;-30
2022/11/08 07:35:58;;;;;;;4.93;2.83;;;11.30;99.90;;;;;;5072606;28;20040;-30
2022/11/08 07:38:25;;;;;;;5.18;2.80;;;11.30;99.90;;;;;;5072954;28;20107;-30
2022/11/08 07:40:53;;;;;;;5.40;3.22;;;11.30;99.90;;;;;;5072402;28;20033;-31
2022/11/08 07:43:19;;;;;;;5.03;2.67;;;11.30;99.90;;;;;;5072745;28;20041;-30
2022/11/08 07:45:45;;;;;;;5.35;2.70;;;11.30;99.90;;;;;;5072541;28;20486;-30
2022/11/08 07:48:12;;;;;;;5.50;3.60;;;11.30;99.90;;;;;;5072510;28;20509;-31
2022/11/08 07:50:39;;;;;;;6.25;4.50;;;11.30;99.90;;;;;;5072713;28;20032;-29
2022/11/08 07:53:05;;;;;;;7.22;5.07;;;11.30;99.90;;;;;;5072291;28;20518;-31
2022/11/08 07:55:31;;;;;;;9.02;6.97;;;11.40;99.90;;;;;;5072203;28;20079;-30
2022/11/08 07:58:00;;;;;;;4.90;4.20;;;11.40;99.90;;;;;;5073406;28;20028;-30
2022/11/08 08:00:27;;;;;;;7.32;4.63;;;11.40;99.90;;;;;;5072451;28;20116;-29
2022/11/08 08:03:01;;;;;;;8.63;4.78;;;11.50;99.90;;;;;;5072092;28;20137;-29
2022/11/08 08:05:28;;;;;;;6.10;3.75;;;11.50;99.90;;;;;;5072338;28;20456;-31
2022/11/08 08:07:58;;;;;;;5.07;2.90;;;11.60;99.90;;;;;;5055347;28;20052;-30
2022/11/08 08:10:25;;;;;;;5.85;2.72;;;11.60;99.90;;;;;;5072167;28;20577;-31
2022/11/08 08:12:52;;;;;;;5.15;2.60;;;11.70;99.90;;;;;;5071955;28;20052;-30
2022/11/08 08:15:18;;;;;;;4.20;3.00;;;11.90;99.90;;;;;;5072161;28;20105;-30
2022/11/08 08:17:44;;;;;;;6.10;3.30;;;12.10;99.90;;;;;;5071790;28;20079;-30
2022/11/08 08:20:10;;;;;;;5.38;2.95;;;12.30;99.90;;;;;;5072059;28;20032;-31
2022/11/08 08:22:41;;;;;;;3.15;2.72;;;12.60;99.90;;;;;;5072105;28;20505;-30
2022/11/08 08:25:07;;;;;;;7.15;3.17;;;12.90;99.90;;;;;;5072901;28;20036;-30
2022/11/08 08:27:33;;;;;;;4.70;2.88;;;13.10;99.90;;;;;;5071610;28;20041;-29
2022/11/08 08:29:59;;;;;;;5.82;2.53;;;13.40;99.90;;;;;;5071917;28;20044;-30
2022/11/08 08:32:24;;;;;;;3.03;2.47;;;13.70;99.90;;;;;;5055177;28;20390;-31
2022/11/08 08:34:50;;;;;;;2.72;2.22;;;13.90;99.90;;;;;;5071607;28;20032;-30
2022/11/08 08:37:16;;;;;;;3.63;2.28;;;14.10;99.90;;;;;;5071522;28;20097;-31
2022/11/08 08:39:42;;;;;;;5.38;2.58;;;14.30;99.90;;;;;;5071640;28;20040;-30
2022/11/08 08:42:07;;;;;;;3.55;2.55;;;14.30;99.90;;;;;;5071671;28;20040;-30
2022/11/08 08:44:33;;;;;;;4.75;2.00;;;14.20;99.90;;;;;;5071473;28;20436;-31
2022/11/08 08:46:59;;;;;;;4.32;2.50;;;14.10;99.90;;;;;;5071199;28;20552;-31
2022/11/08 08:49:24;;;;;;;3.92;2.30;;;14.10;99.90;;;;;;5071215;28;20100;-31
2022/11/08 08:51:50;;;;;;;5.03;2.33;;;14.00;99.90;;;;;;5071348;28;20083;-30
2022/11/08 08:54:16;;;;;;;2.20;1.90;;;13.90;99.90;;;;;;5054478;28;20130;-31
2022/11/08 08:56:42;;;;;;;4.93;2.10;;;13.80;99.90;;;;;;5071376;28;20043;-31
2022/11/08 08:59:07;;;;;;;4.93;1.88;;;13.80;99.90;;;;;;5071146;28;20505;-31
2022/11/08 09:01:33;;;;;;;5.03;2.00;;;13.90;99.90;;;;;;5070613;28;20071;-31
2022/11/08 09:03:59;;;;;;;4.22;2.10;;;14.00;99.90;;;;;;5071558;28;20086;-30
2022/11/08 09:06:25;;;;;;;4.22;2.03;;;14.30;99.90;;;;;;5071965;28;20051;-30
2022/11/08 09:08:51;;;;;;;3.92;1.92;;;14.60;99.90;;;;;;5071829;28;20485;-31
2022/11/08 09:11:16;;;;;;;3.90;1.95;;;14.80;99.90;;;;;;5071044;28;20044;-31
2022/11/08 09:13:42;;;;;;;5.78;2.20;;;15.20;99.90;;;;;;5071094;28;20094;-31
2022/11/08 09:16:09;;;;;;;3.38;1.95;;;15.50;99.90;;;;;;5054436;28;20048;-29
2022/11/08 09:18:35;;;;;;;4.43;1.90;;;15.80;99.90;;;;;;5070824;28;20036;-31
2022/11/08 09:21:03;;;;;;;2.50;1.70;;;15.80;99.90;;;;;;5071340;28;20516;-30
2022/11/08 09:23:29;;;;;;;4.65;2.35;;;15.70;99.90;;;;;;5071171;28;20048;-30
2022/11/08 09:25:57;;;;;;;2.38;2.03;;;15.70;99.90;;;;;;5071285;28;20076;-30
2022/11/08 09:28:22;;;;;;;3.08;1.95;;;15.60;99.90;;;;;;5070855;28;20044;-31
2022/11/08 09:30:48;;;;;;;3.58;2.00;;;15.60;99.90;;;;;;5071010;28;20105;-31
2022/11/08 09:33:14;;;;;;;5.07;2.03;;;15.50;99.90;;;;;;5070886;28;20040;-32
2022/11/08 09:35:39;;;;;;;4.05;2.28;;;15.60;99.90;;;;;;5070919;28;20476;-31
2022/11/08 09:38:06;;;;;;;2.33;1.77;;;15.80;99.90;;;;;;5070554;28;20123;-31
2022/11/08 09:40:37;;;;;;;3.45;2.15;;;16.10;99.90;;;;;;5070805;28;20036;-30
2022/11/08 09:43:33;;;;;;;4.20;2.40;;;16.30;99.90;;;;;;5070630;28;20044;-31
2022/11/08 09:45:58;;;;;;;4.53;2.20;;;16.40;99.90;;;;;;5070593;28;20047;-30
2022/11/08 09:48:37;;;;;;;10.52;6.53;;;16.30;99.90;;;;;;5070715;28;20028;-31
2022/11/08 09:51:14;;;;;;;4.10;3.70;;;16.00;99.90;;;;;;5070507;28;20075;-31
2022/11/08 09:54:00;;;;;;;4.50;2.40;;;15.80;99.90;;;;;;5070518;28;20051;-31
2022/11/08 09:56:30;;;;;;;6.13;2.10;;;15.60;99.90;;;;;;5070814;28;20379;-31
2022/11/08 09:59:03;;;;;;;4.07;2.00;;;15.40;99.90;;;;;;5070471;28;20036;-30
2022/11/08 10:01:34;;;;;;;3.80;2.28;;;15.30;99.90;;;;;;5070757;28;20044;-31
2022/11/08 10:04:18;;;;;;;2.88;2.42;;;15.20;99.90;;;;;;5054045;28;20517;-32
2022/11/08 10:07:16;;;;;;;3.60;2.05;;;15.10;99.90;;;;;;5070723;28;20032;-30
2022/11/08 10:10:06;;;;;;;3.47;2.00;;;15.10;99.90;;;;;;5070425;28;20124;-31
2022/11/08 10:12:35;;;;;;;3.60;2.20;;;15.00;99.90;;;;;;5054909;28;20482;-31
2022/11/08 10:15:01;;;;;;;3.88;2.10;;;15.00;99.90;;;;;;5057389;28;20036;-32
2022/11/08 10:17:54;;;;;;;4.13;2.33;;;15.00;99.90;;;;;;5057787;28;20036;-31
2022/11/08 10:20:45;;;;;;;2.72;2.35;;;14.90;99.90;;;;;;5057390;28;20037;-30
2022/11/08 10:23:51;;;;;;;5.35;2.47;;;14.90;99.90;;;;;;5057377;28;20047;-29
2022/11/08 10:26:19;;;;;;;3.40;2.20;;;14.80;99.90;;;;;;5049063;28;20048;-32
2022/11/08 10:28:52;;;;;;;4.20;2.88;;;14.80;99.90;;;;;;5075429;28;20600;-31
2022/11/08 10:31:19;;;;;;;3.95;2.40;;;14.80;99.90;;;;;;5075440;28;20563;-31
2022/11/08 10:33:56;;;;;;;3.80;2.17;;;14.80;99.90;;;;;;5074134;28;20032;-31
2022/11/08 10:36:33;;;;;;;4.22;2.08;;;14.80;99.90;;;;;;5070522;28;20116;-31
2022/11/08 10:39:10;;;;;;;2.38;2.05;;;14.80;99.90;;;;;;5070829;28;20044;-31
2022/11/08 10:42:03;;;;;;;3.60;2.10;;;14.70;99.90;;;;;;5073748;28;20052;-30
2022/11/08 10:44:29;;;;;;;2.15;1.95;;;14.70;99.90;;;;;;5057126;28;20051;-31
2022/11/08 10:46:54;;;;;;;5.22;2.15;;;14.70;99.90;;;;;;5073631;28;20494;-32
2022/11/08 10:49:24;;;;;;;3.28;2.08;;;14.60;99.90;;;;;;5057205;28;20036;-30
2022/11/08 10:52:11;;;;;;;4.57;2.40;;;14.60;99.90;;;;;;5073630;28;20041;-31
2022/11/08 10:54:48;;;;;;;4.03;2.50;;;14.50;99.90;;;;;;5073303;28;20434;-30
2022/11/08 10:57:24;;;;;;;4.43;2.35;;;14.50;99.90;;;;;;5073764;28;20056;-31
2022/11/08 10:59:51;;;;;;;5.30;2.40;;;14.40;99.90;;;;;;5073632;28;20040;-30
2022/11/08 11:02:33;;;;;;;3.03;2.30;;;14.40;99.90;;;;;;5073510;28;20459;-32
2022/11/08 11:05:17;;;;;;;5.13;2.65;;;14.50;99.90;;;;;;5073189;28;20047;-31
2022/11/08 11:08:06;;;;;;;3.25;2.03;;;14.50;99.90;;;;;;5056544;28;20047;-31
2022/11/08 11:10:47;;;;;;;5.60;2.60;;;14.40;99.90;;;;;;5073169;28;20076;-31
2022/11/08 11:13:19;;;;;;;2.55;2.33;;;14.40;99.90;;;;;;5073004;28;20090;-31
2022/11/08 11:15:59;;;;;;;3.53;2.28;;;14.40;99.90;;;;;;5056654;28;20041;-31
2022/11/08 11:18:27;;;;;;;5.75;2.65;;;14.50;99.90;;;;;;5056580;28;20558;-31
2022/11/08 11:21:13;;;;;;;3.00;2.17;;;14.50;99.90;;;;;;5073110;28;20040;-30
2022/11/08 11:23:47;;;;;;;2.65;2.03;;;14.50;99.90;;;;;;5072505;28;20382;-33
2022/11/08 11:26:41;;;;;;;3.58;2.28;;;14.60;99.90;;;;;;5072798;28;20131;-30
2022/11/08 11:29:16;;;;;;;5.32;2.55;;;14.80;99.90;;;;;;5056323;28;20482;-31
2022/11/08 11:31:45;;;;;;;2.17;1.98;;;15.00;99.90;;;;;;5073057;28;20052;-30
2022/11/08 11:34:17;;;;;;;3.13;2.28;;;15.30;99.90;;;;;;5072633;28;20040;-30
2022/11/08 11:36:54;;;;;;;3.60;2.00;;;15.50;99.90;;;;;;5056439;28;20413;-30
2022/11/08 11:39:40;;;;;;;3.75;1.90;;;15.60;99.90;;;;;;5073253;28;20478;-31
2022/11/08 11:42:24;;;;;;;3.50;1.95;;;15.80;99.90;;;;;;5073483;28;20040;-30
2022/11/08 11:45:05;;;;;;;2.85;1.77;;;16.00;99.90;;;;;;5056260;28;20072;-31
2022/11/08 11:48:17;;;;;;;5.55;2.60;;;15.90;99.90;;;;;;5073333;28;20395;-30
2022/11/08 11:50:48;;;;;;;5.22;2.53;;;15.80;99.90;;;;;;5034847;28;20131;-31
2022/11/08 11:53:16;;;;;;;5.97;2.08;;;15.70;99.90;;;;;;5053598;28;20498;-30
2022/11/08 11:56:04;;;;;;;4.20;2.20;;;15.80;99.90;;;;;;5055603;28;20032;-31
2022/11/08 11:58:33;;;;;;;4.80;2.42;;;15.80;99.90;;;;;;5055742;28;20082;-30
2022/11/08 12:01:15;;;;;;;4.53;2.60;;;15.80;99.90;;;;;;5055821;28;20517;-31
2022/11/08 12:03:46;;;;;;;3.13;1.80;;;15.70;99.90;;;;;;5072251;28;20116;-31
2022/11/08 12:06:22;;;;;;;3.60;2.30;;;15.60;99.90;;;;;;5055396;28;20043;-30
2022/11/08 12:09:11;;;;;;;3.70;2.25;;;15.50;99.90;;;;;;5039048;28;20228;-29
2022/11/08 12:11:46;;;;;;;3.65;2.25;;;15.40;99.90;;;;;;5072333;28;20115;-31
2022/11/08 12:14:21;;;;;;;6.75;2.63;;;15.50;99.90;;;;;;5072134;28;20405;-31
2022/11/08 12:16:47;;;;;;;4.28;2.42;;;15.80;99.90;;;;;;5072337;28;20043;-30
2022/11/08 12:19:31;;;;;;;2.80;2.15;;;16.10;99.90;;;;;;5072538;28;20044;-30
2022/11/08 12:21:56;;;;;;;;;;;16.30;99.90;;;;;;5072338;28;20047;-30
2022/11/08 12:24:40;;;;;;;4.63;2.25;;;16.20;99.90;;;;;;5071818;28;19916;-30
2022/11/08 12:27:05;;;;;;;;;;;16.00;99.90;;;;;;5072323;28;20117;-32
2022/11/08 12:30:00;;;;;;;3.90;2.15;;;15.80;99.90;;;;;;5071530;28;19916;-30
2022/11/08 12:32:34;;;;;;;3.33;1.98;;;15.70;99.90;;;;;;5034302;28;20430;-30
2022/11/08 12:35:16;;;;;;;6.22;2.40;;;15.60;99.90;;;;;;5072462;28;20033;-30
2022/11/08 12:37:54;;;;;;;4.15;2.55;;;15.40;99.90;;;;;;5055211;28;20119;-32
2022/11/08 12:40:58;;;;;;;5.93;2.17;;;15.30;99.90;;;;;;5054704;28;20076;-31
2022/11/08 12:43:46;;;;;;;;;;;15.20;99.90;;;;;;5006551;28;20042;-31
2022/11/08 12:46:17;;;;;;;4.60;2.70;;;15.10;99.90;;;;;;5070438;28;19916;-31
2022/11/08 12:49:09;;;;;;;6.07;2.67;;;15.10;99.90;;;;;;5071512;28;20032;-31
2022/11/08 12:52:16;;;;;;;4.40;2.35;;;15.10;99.90;;;;;;5070935;28;20055;-31
2022/11/08 12:54:51;;;;;;;2.90;2.20;;;15.10;99.90;;;;;;5065677;28;20032;-32
2022/11/08 12:57:21;;;;;;;5.60;2.20;;;15.20;99.90;;;;;;5054540;28;20048;-31
2022/11/08 13:00:07;;;;;;;4.40;2.30;;;15.40;99.90;;;;;;5070943;28;20037;-31
2022/11/08 13:02:37;;;;;;;3.85;2.00;;;15.60;99.90;;;;;;5071145;28;20036;-30
2022/11/08 13:05:21;;;;;;;3.72;1.90;;;16.00;99.90;;;;;;5070608;28;20045;-31
2022/11/08 13:08:08;;;;;;;4.88;1.90;;;16.40;99.90;;;;;;5069382;28;20040;-31
2022/11/08 13:10:42;;;;;;;2.30;2.00;;;17.00;99.90;;;;;;5069253;28;20498;-30
2022/11/08 13:13:20;;;;;;;6.13;2.20;;;17.60;99.90;;;;;;5052559;28;20044;-31
2022/11/08 13:16:28;;;;;;;5.00;2.10;;;17.50;99.90;;;;;;5068680;28;20032;-30
2022/11/08 13:18:56;;;;;;;3.17;1.80;;;17.20;99.90;;;;;;5046562;28;20044;-30
2022/11/08 13:21:28;;;;;;;5.95;2.15;;;16.90;99.90;;;;;;5062035;28;20036;-30